sensor_id;sensor_type;location;lat;lon;timestamp;temperature;humidity
43143;DHT22;28750;59.842;17.584;2022-09-25T00:00:51;10.70;99.90
43143;DHT22;28750;59.842;17.584;2022-09-25T00:03:19;10.70;99.90
43143;DHT22;28750;59.842;17.584;2022-09-25T00:05:47;10.70;99.90
43143;DHT22;28750;59.842;17.584;2022-09-25T00:08:16;10.70;99.90
43143;DHT22;28750;59.842;17.584;2022-09-25T00:10:45;10.60;99.90
43143;DHT22;28750;59.842;17.584;2022-09-25T00:13:14;10.70;99.90
43143;DHT22;28750;59.842;17.584;2022-09-25T00:15:50;10.70;99.90
43143;DHT22;28750;59.842;17.584;2022-09-25T00:18:18;10.60;99.90
43143;DHT22;28750;59.842;17.584;2022-09-25T00:21:08;10.70;99.90
43143;DHT22;28750;59.842;17.584;2022-09-25T00:23:36;10.60;99.90
43143;DHT22;28750;59.842;17.584;2022-09-25T00:26:04;10.60;99.90
43143;DHT22;28750;59.842;17.584;2022-09-25T00:28:36;10.70;99.90
43143;DHT22;28750;59.842;17.584;2022-09-25T00:31:04;10.60;99.90
43143;DHT22;28750;59.842;17.584;2022-09-25T00:33:33;10.60;99.90
43143;DHT22;28750;59.842;17.584;2022-09-25T00:36:06;10.60;99.90
43143;DHT22;28750;59.842;17.584;2022-09-25T00:38:34;10.60;99.90
43143;DHT22;28750;59.842;17.584;2022-09-25T00:41:02;10.50;99.90
43143;DHT22;28750;59.842;17.584;2022-09-25T00:43:34;10.50;99.90
43143;DHT22;28750;59.842;17.584;2022-09-25T00:48:37;10.40;99.90
43143;DHT22;28750;59.842;17.584;2022-09-25T00:51:07;10.40;99.90
43143;DHT22;28750;59.842;17.584;2022-09-25T00:53:37;10.40;99.90
43143;DHT22;28750;59.842;17.584;2022-09-25T00:56:06;10.40;99.90
43143;DHT22;28750;59.842;17.584;2022-09-25T00:58:37;10.40;99.90
43143;DHT22;28750;59.842;17.584;2022-09-25T01:01:06;10.40;99.90
43143;DHT22;28750;59.842;17.584;2022-09-25T01:03:34;10.40;99.90
43143;DHT22;28750;59.842;17.584;2022-09-25T01:06:02;10.50;99.90
43143;DHT22;28750;59.842;17.584;2022-09-25T01:08:31;10.50;99.90
43143;DHT22;28750;59.842;17.584;2022-09-25T01:11:00;10.40;99.90
43143;DHT22;28750;59.842;17.584;2022-09-25T01:13:27;10.40;99.90
43143;DHT22;28750;59.842;17.584;2022-09-25T01:16:11;10.50;99.90
43143;DHT22;28750;59.842;17.584;2022-09-25T01:18:51;10.40;99.90
43143;DHT22;28750;59.842;17.584;2022-09-25T01:21:36;10.40;99.90
43143;DHT22;28750;59.842;17.584;2022-09-25T01:30:18;10.30;99.90
43143;DHT22;28750;59.842;17.584;2022-09-25T01:43:45;10.20;99.90
43143;DHT22;28750;59.842;17.584;2022-09-25T01:46:27;10.20;99.90
43143;DHT22;28750;59.842;17.584;2022-09-25T01:49:17;10.10;99.90
43143;DHT22;28750;59.842;17.584;2022-09-25T01:51:50;10.10;99.90
43143;DHT22;28750;59.842;17.584;2022-09-25T01:54:25;10.10;99.90
43143;DHT22;28750;59.842;17.584;2022-09-25T01:57:35;10.10;99.90
43143;DHT22;28750;59.842;17.584;2022-09-25T02:02:32;10.00;99.90
43143;DHT22;28750;59.842;17.584;2022-09-25T02:05:08;10.00;99.90
43143;DHT22;28750;59.842;17.584;2022-09-25T02:07:40;10.00;99.90
43143;DHT22;28750;59.842;17.584;2022-09-25T02:10:15;10.00;99.90
43143;DHT22;28750;59.842;17.584;2022-09-25T02:12:47;10.00;99.90
43143;DHT22;28750;59.842;17.584;2022-09-25T02:15:30;10.00;99.90
43143;DHT22;28750;59.842;17.584;2022-09-25T02:18:00;10.00;99.90
43143;DHT22;28750;59.842;17.584;2022-09-25T02:20:48;10.00;99.90
43143;DHT22;28750;59.842;17.584;2022-09-25T02:24:11;10.10;99.90
43143;DHT22;28750;59.842;17.584;2022-09-25T02:26:40;10.10;99.90
43143;DHT22;28750;59.842;17.584;2022-09-25T02:29:07;10.10;99.90
43143;DHT22;28750;59.842;17.584;2022-09-25T02:31:37;10.00;99.90
43143;DHT22;28750;59.842;17.584;2022-09-25T02:34:06;10.00;99.90
43143;DHT22;28750;59.842;17.584;2022-09-25T02:36:33;10.00;99.90
43143;DHT22;28750;59.842;17.584;2022-09-25T02:39:02;10.10;99.90
43143;DHT22;28750;59.842;17.584;2022-09-25T02:52:45;9.90;99.90
43143;DHT22;28750;59.842;17.584;2022-09-25T02:55:34;9.90;99.90
43143;DHT22;28750;59.842;17.584;2022-09-25T02:58:28;9.90;99.90
43143;DHT22;28750;59.842;17.584;2022-09-25T03:00:59;9.90;99.90
43143;DHT22;28750;59.842;17.584;2022-09-25T03:03:27;9.80;99.90
43143;DHT22;28750;59.842;17.584;2022-09-25T03:05:55;9.80;99.90
43143;DHT22;28750;59.842;17.584;2022-09-25T03:08:25;9.80;99.90
43143;DHT22;28750;59.842;17.584;2022-09-25T03:11:17;9.90;99.90
43143;DHT22;28750;59.842;17.584;2022-09-25T03:13:57;9.90;99.90
43143;DHT22;28750;59.842;17.584;2022-09-25T03:16:48;9.90;99.90
43143;DHT22;28750;59.842;17.584;2022-09-25T03:19:18;9.90;99.90
43143;DHT22;28750;59.842;17.584;2022-09-25T03:21:45;9.70;99.90
43143;DHT22;28750;59.842;17.584;2022-09-25T03:24:13;9.70;99.90
43143;DHT22;28750;59.842;17.584;2022-09-25T03:26:41;9.60;99.90
43143;DHT22;28750;59.842;17.584;2022-09-25T03:29:08;9.70;99.90
43143;DHT22;28750;59.842;17.584;2022-09-25T03:31:35;9.70;99.90
43143;DHT22;28750;59.842;17.584;2022-09-25T03:34:02;9.80;99.90
43143;DHT22;28750;59.842;17.584;2022-09-25T03:36:30;9.80;99.90
43143;DHT22;28750;59.842;17.584;2022-09-25T03:38:58;9.80;99.90
43143;DHT22;28750;59.842;17.584;2022-09-25T03:41:30;9.80;99.90
43143;DHT22;28750;59.842;17.584;2022-09-25T03:43:58;9.80;99.90
43143;DHT22;28750;59.842;17.584;2022-09-25T03:46:31;9.70;99.90
43143;DHT22;28750;59.842;17.584;2022-09-25T03:48:59;9.60;99.90
43143;DHT22;28750;59.842;17.584;2022-09-25T03:51:28;9.70;99.90
43143;DHT22;28750;59.842;17.584;2022-09-25T03:53:55;9.60;99.90
43143;DHT22;28750;59.842;17.584;2022-09-25T03:56:25;9.60;99.90
43143;DHT22;28750;59.842;17.584;2022-09-25T03:58:54;9.60;99.90
43143;DHT22;28750;59.842;17.584;2022-09-25T04:01:22;9.60;99.90
43143;DHT22;28750;59.842;17.584;2022-09-25T04:03:49;9.60;99.90
43143;DHT22;28750;59.842;17.584;2022-09-25T04:06:20;9.50;99.90
43143;DHT22;28750;59.842;17.584;2022-09-25T04:08:49;9.50;99.90
43143;DHT22;28750;59.842;17.584;2022-09-25T04:11:17;9.40;99.90
43143;DHT22;28750;59.842;17.584;2022-09-25T04:13:45;9.40;99.90
43143;DHT22;28750;59.842;17.584;2022-09-25T04:16:14;9.50;99.90
43143;DHT22;28750;59.842;17.584;2022-09-25T04:18:41;9.50;99.90
43143;DHT22;28750;59.842;17.584;2022-09-25T04:21:10;9.50;99.90
43143;DHT22;28750;59.842;17.584;2022-09-25T04:23:38;9.50;99.90
43143;DHT22;28750;59.842;17.584;2022-09-25T04:26:06;9.50;99.90
43143;DHT22;28750;59.842;17.584;2022-09-25T04:28:33;9.40;99.90
43143;DHT22;28750;59.842;17.584;2022-09-25T04:31:00;9.30;99.90
43143;DHT22;28750;59.842;17.584;2022-09-25T04:33:28;9.30;99.90
43143;DHT22;28750;59.842;17.584;2022-09-25T04:36:14;9.30;99.90
43143;DHT22;28750;59.842;17.584;2022-09-25T04:38:41;9.20;99.90
43143;DHT22;28750;59.842;17.584;2022-09-25T04:41:08;9.20;99.90
43143;DHT22;28750;59.842;17.584;2022-09-25T04:43:35;9.30;99.90
43143;DHT22;28750;59.842;17.584;2022-09-25T04:46:07;9.40;99.90
43143;DHT22;28750;59.842;17.584;2022-09-25T04:48:35;9.50;99.90
43143;DHT22;28750;59.842;17.584;2022-09-25T04:51:03;9.50;99.90
43143;DHT22;28750;59.842;17.584;2022-09-25T04:53:31;9.40;99.90
43143;DHT22;28750;59.842;17.584;2022-09-25T04:56:05;9.30;99.90
43143;DHT22;28750;59.842;17.584;2022-09-25T04:58:33;9.10;99.90
43143;DHT22;28750;59.842;17.584;2022-09-25T05:01:02;9.10;99.90
43143;DHT22;28750;59.842;17.584;2022-09-25T05:03:29;9.20;99.90
43143;DHT22;28750;59.842;17.584;2022-09-25T05:05:56;9.20;99.90
43143;DHT22;28750;59.842;17.584;2022-09-25T05:08:24;9.20;99.90
43143;DHT22;28750;59.842;17.584;2022-09-25T05:10:52;9.20;99.90
43143;DHT22;28750;59.842;17.584;2022-09-25T05:13:19;9.20;99.90
43143;DHT22;28750;59.842;17.584;2022-09-25T05:15:46;9.20;99.90
43143;DHT22;28750;59.842;17.584;2022-09-25T05:18:20;9.30;99.90
43143;DHT22;28750;59.842;17.584;2022-09-25T05:20:49;9.30;99.90
43143;DHT22;28750;59.842;17.584;2022-09-25T05:23:18;9.30;99.90
43143;DHT22;28750;59.842;17.584;2022-09-25T05:25:54;9.30;99.90
43143;DHT22;28750;59.842;17.584;2022-09-25T05:28:23;9.30;99.90
43143;DHT22;28750;59.842;17.584;2022-09-25T05:30:49;9.30;99.90
43143;DHT22;28750;59.842;17.584;2022-09-25T05:33:17;9.30;99.90
43143;DHT22;28750;59.842;17.584;2022-09-25T05:35:43;9.40;99.90
43143;DHT22;28750;59.842;17.584;2022-09-25T05:38:10;9.40;99.90
43143;DHT22;28750;59.842;17.584;2022-09-25T05:40:37;9.40;99.90
43143;DHT22;28750;59.842;17.584;2022-09-25T05:43:04;9.30;99.90
43143;DHT22;28750;59.842;17.584;2022-09-25T05:45:32;9.40;99.90
43143;DHT22;28750;59.842;17.584;2022-09-25T05:48:04;9.40;99.90
43143;DHT22;28750;59.842;17.584;2022-09-25T05:50:31;9.50;99.90
43143;DHT22;28750;59.842;17.584;2022-09-25T05:53:00;9.60;99.90
43143;DHT22;28750;59.842;17.584;2022-09-25T05:55:27;9.70;99.90
43143;DHT22;28750;59.842;17.584;2022-09-25T05:57:59;9.70;99.90
43143;DHT22;28750;59.842;17.584;2022-09-25T06:00:27;9.70;99.90
43143;DHT22;28750;59.842;17.584;2022-09-25T06:02:58;9.70;99.90
43143;DHT22;28750;59.842;17.584;2022-09-25T06:05:25;9.60;99.90
43143;DHT22;28750;59.842;17.584;2022-09-25T06:07:53;9.60;99.90
43143;DHT22;28750;59.842;17.584;2022-09-25T06:10:21;9.60;99.90
43143;DHT22;28750;59.842;17.584;2022-09-25T06:12:54;9.60;99.90
43143;DHT22;28750;59.842;17.584;2022-09-25T06:15:24;9.70;99.90
43143;DHT22;28750;59.842;17.584;2022-09-25T06:17:53;9.60;99.90
43143;DHT22;28750;59.842;17.584;2022-09-25T06:20:20;9.70;99.90
43143;DHT22;28750;59.842;17.584;2022-09-25T06:22:51;9.70;99.90
43143;DHT22;28750;59.842;17.584;2022-09-25T06:25:23;9.80;99.90
43143;DHT22;28750;59.842;17.584;2022-09-25T06:27:54;9.80;99.90
43143;DHT22;28750;59.842;17.584;2022-09-25T06:30:23;9.80;99.90
43143;DHT22;28750;59.842;17.584;2022-09-25T06:32:56;9.90;99.90
43143;DHT22;28750;59.842;17.584;2022-09-25T06:35:25;9.90;99.90
43143;DHT22;28750;59.842;17.584;2022-09-25T06:37:55;10.00;99.90
43143;DHT22;28750;59.842;17.584;2022-09-25T06:40:23;10.00;99.90
43143;DHT22;28750;59.842;17.584;2022-09-25T06:43:00;10.10;99.90
43143;DHT22;28750;59.842;17.584;2022-09-25T06:45:29;10.10;99.90
43143;DHT22;28750;59.842;17.584;2022-09-25T06:48:04;10.20;99.90
43143;DHT22;28750;59.842;17.584;2022-09-25T06:53:14;9.90;99.90
43143;DHT22;28750;59.842;17.584;2022-09-25T06:55:42;9.90;99.90
43143;DHT22;28750;59.842;17.584;2022-09-25T06:58:12;10.00;99.90
43143;DHT22;28750;59.842;17.584;2022-09-25T07:00:39;10.00;99.90
43143;DHT22;28750;59.842;17.584;2022-09-25T07:03:07;10.00;99.90
43143;DHT22;28750;59.842;17.584;2022-09-25T07:05:51;10.10;99.90
43143;DHT22;28750;59.842;17.584;2022-09-25T07:08:19;10.10;99.90
43143;DHT22;28750;59.842;17.584;2022-09-25T07:10:50;10.20;99.90
43143;DHT22;28750;59.842;17.584;2022-09-25T07:13:19;10.30;99.90
43143;DHT22;28750;59.842;17.584;2022-09-25T07:15:57;10.30;99.90
43143;DHT22;28750;59.842;17.584;2022-09-25T07:18:25;10.40;99.90
43143;DHT22;28750;59.842;17.584;2022-09-25T07:20:58;10.40;99.90
43143;DHT22;28750;59.842;17.584;2022-09-25T07:23:25;10.50;99.90
43143;DHT22;28750;59.842;17.584;2022-09-25T07:25:53;10.60;99.90
43143;DHT22;28750;59.842;17.584;2022-09-25T07:28:21;10.70;99.90
43143;DHT22;28750;59.842;17.584;2022-09-25T07:30:47;10.70;99.90
43143;DHT22;28750;59.842;17.584;2022-09-25T07:33:14;10.80;99.90
43143;DHT22;28750;59.842;17.584;2022-09-25T07:35:42;10.90;99.90
43143;DHT22;28750;59.842;17.584;2022-09-25T07:38:09;11.10;99.90
43143;DHT22;28750;59.842;17.584;2022-09-25T07:40:35;11.10;99.90
43143;DHT22;28750;59.842;17.584;2022-09-25T07:43:06;11.20;99.90
43143;DHT22;28750;59.842;17.584;2022-09-25T07:45:33;11.20;99.90
43143;DHT22;28750;59.842;17.584;2022-09-25T07:48:02;11.40;99.90
43143;DHT22;28750;59.842;17.584;2022-09-25T07:50:31;11.40;99.90
43143;DHT22;28750;59.842;17.584;2022-09-25T07:52:58;11.50;99.90
43143;DHT22;28750;59.842;17.584;2022-09-25T07:55:25;11.60;99.90
43143;DHT22;28750;59.842;17.584;2022-09-25T07:57:56;11.80;99.90
43143;DHT22;28750;59.842;17.584;2022-09-25T08:00:23;11.80;99.90
43143;DHT22;28750;59.842;17.584;2022-09-25T08:02:57;11.90;99.90
43143;DHT22;28750;59.842;17.584;2022-09-25T08:05:25;12.00;99.90
43143;DHT22;28750;59.842;17.584;2022-09-25T08:07:53;12.10;99.90
43143;DHT22;28750;59.842;17.584;2022-09-25T08:10:20;12.20;99.90
43143;DHT22;28750;59.842;17.584;2022-09-25T08:12:48;12.30;99.90
43143;DHT22;28750;59.842;17.584;2022-09-25T08:15:15;12.50;99.90
43143;DHT22;28750;59.842;17.584;2022-09-25T08:17:42;12.50;99.90
43143;DHT22;28750;59.842;17.584;2022-09-25T08:20:09;12.40;99.90
43143;DHT22;28750;59.842;17.584;2022-09-25T08:22:36;12.40;99.90
43143;DHT22;28750;59.842;17.584;2022-09-25T08:25:04;12.40;99.90
43143;DHT22;28750;59.842;17.584;2022-09-25T08:27:31;12.50;99.90
43143;DHT22;28750;59.842;17.584;2022-09-25T08:29:58;12.50;99.90
43143;DHT22;28750;59.842;17.584;2022-09-25T08:32:25;12.60;99.90
43143;DHT22;28750;59.842;17.584;2022-09-25T08:34:52;12.60;99.90
43143;DHT22;28750;59.842;17.584;2022-09-25T08:37:19;12.90;99.90
43143;DHT22;28750;59.842;17.584;2022-09-25T08:39:46;12.80;99.90
43143;DHT22;28750;59.842;17.584;2022-09-25T08:42:21;12.90;99.90
43143;DHT22;28750;59.842;17.584;2022-09-25T08:44:52;13.00;99.90
43143;DHT22;28750;59.842;17.584;2022-09-25T08:47:34;13.00;99.90
43143;DHT22;28750;59.842;17.584;2022-09-25T08:50:21;12.90;99.90
43143;DHT22;28750;59.842;17.584;2022-09-25T08:52:52;13.10;99.90
43143;DHT22;28750;59.842;17.584;2022-09-25T08:55:26;13.20;99.90
43143;DHT22;28750;59.842;17.584;2022-09-25T08:58:26;13.00;99.90
43143;DHT22;28750;59.842;17.584;2022-09-25T09:00:58;13.10;99.90
43143;DHT22;28750;59.842;17.584;2022-09-25T09:03:26;13.30;99.90
43143;DHT22;28750;59.842;17.584;2022-09-25T09:06:06;13.40;99.90
43143;DHT22;28750;59.842;17.584;2022-09-25T09:08:37;13.40;99.90
43143;DHT22;28750;59.842;17.584;2022-09-25T09:11:17;13.50;99.90
43143;DHT22;28750;59.842;17.584;2022-09-25T09:14:06;13.50;99.90
43143;DHT22;28750;59.842;17.584;2022-09-25T09:16:57;13.40;99.90
43143;DHT22;28750;59.842;17.584;2022-09-25T09:19:25;13.40;1.00
43143;DHT22;28750;59.842;17.584;2022-09-25T09:22:23;13.60;99.90
43143;DHT22;28750;59.842;17.584;2022-09-25T09:25:01;13.70;99.90
43143;DHT22;28750;59.842;17.584;2022-09-25T09:30:33;13.80;99.90
43143;DHT22;28750;59.842;17.584;2022-09-25T09:36:04;13.90;99.90
43143;DHT22;28750;59.842;17.584;2022-09-25T09:41:15;14.00;1.00
43143;DHT22;28750;59.842;17.584;2022-09-25T09:52:35;14.00;99.90
43143;DHT22;28750;59.842;17.584;2022-09-25T09:57:51;14.20;99.90
43143;DHT22;28750;59.842;17.584;2022-09-25T10:00:20;14.30;99.90
43143;DHT22;28750;59.842;17.584;2022-09-25T10:03:22;14.30;99.90
43143;DHT22;28750;59.842;17.584;2022-09-25T10:05:55;14.40;99.90
43143;DHT22;28750;59.842;17.584;2022-09-25T10:08:22;14.70;99.90
43143;DHT22;28750;59.842;17.584;2022-09-25T10:10:51;15.10;61.50
43143;DHT22;28750;59.842;17.584;2022-09-25T10:13:21;15.60;1.00
43143;DHT22;28750;59.842;17.584;2022-09-25T10:18:34;17.30;1.00
43143;DHT22;28750;59.842;17.584;2022-09-25T10:21:51;18.10;51.70
43143;DHT22;28750;59.842;17.584;2022-09-25T10:23:54;18.60;99.90
43143;DHT22;28750;59.842;17.584;2022-09-25T10:26:41;18.80;99.90
43143;DHT22;28750;59.842;17.584;2022-09-25T10:31:38;19.50;99.90
43143;DHT22;28750;59.842;17.584;2022-09-25T10:34:17;19.20;99.90
43143;DHT22;28750;59.842;17.584;2022-09-25T10:36:50;19.50;99.90
43143;DHT22;28750;59.842;17.584;2022-09-25T10:39:27;18.00;99.90
43143;DHT22;28750;59.842;17.584;2022-09-25T10:41:55;18.10;1.00
43143;DHT22;28750;59.842;17.584;2022-09-25T10:44:34;18.70;99.90
43143;DHT22;28750;59.842;17.584;2022-09-25T10:50:15;17.70;99.90
43143;DHT22;28750;59.842;17.584;2022-09-25T10:52:52;17.80;23.70
43143;DHT22;28750;59.842;17.584;2022-09-25T10:55:31;17.90;99.90
43143;DHT22;28750;59.842;17.584;2022-09-25T11:00:42;18.50;99.90
43143;DHT22;28750;59.842;17.584;2022-09-25T11:03:26;19.50;99.90
43143;DHT22;28750;59.842;17.584;2022-09-25T11:08:43;20.20;42.40
43143;DHT22;28750;59.842;17.584;2022-09-25T11:11:10;20.20;99.90
43143;DHT22;28750;59.842;17.584;2022-09-25T11:13:55;21.00;1.00
43143;DHT22;28750;59.842;17.584;2022-09-25T11:16:53;21.40;1.00
43143;DHT22;28750;59.842;17.584;2022-09-25T11:19:26;21.10;1.00
43143;DHT22;28750;59.842;17.584;2022-09-25T11:22:08;21.30;1.00
43143;DHT22;28750;59.842;17.584;2022-09-25T11:27:39;20.50;1.00
43143;DHT22;28750;59.842;17.584;2022-09-25T11:30:18;20.40;3.20
43143;DHT22;28750;59.842;17.584;2022-09-25T11:38:46;18.70;79.50
43143;DHT22;28750;59.842;17.584;2022-09-25T11:44:39;18.80;23.30
43143;DHT22;28750;59.842;17.584;2022-09-25T11:50:03;19.60;1.00
43143;DHT22;28750;59.842;17.584;2022-09-25T11:52:37;19.70;1.00
43143;DHT22;28750;59.842;17.584;2022-09-25T12:01:13;19.60;17.60
43143;DHT22;28750;59.842;17.584;2022-09-25T12:03:33;19.60;1.00
43143;DHT22;28750;59.842;17.584;2022-09-25T12:12:02;19.50;1.00
43143;DHT22;28750;59.842;17.584;2022-09-25T12:26:05;17.90;1.00
43143;DHT22;28750;59.842;17.584;2022-09-25T12:36:45;16.50;1.00
43143;DHT22;28750;59.842;17.584;2022-09-25T12:42:59;16.20;16.30
43143;DHT22;28750;59.842;17.584;2022-09-25T12:49:06;15.70;99.90
43143;DHT22;28750;59.842;17.584;2022-09-25T12:51:41;15.60;99.90
43143;DHT22;28750;59.842;17.584;2022-09-25T12:57:09;15.80;99.90
43143;DHT22;28750;59.842;17.584;2022-09-25T13:00:03;15.90;99.90
43143;DHT22;28750;59.842;17.584;2022-09-25T13:08:12;15.70;99.90
43143;DHT22;28750;59.842;17.584;2022-09-25T13:11:04;15.70;96.90
43143;DHT22;28750;59.842;17.584;2022-09-25T13:13:41;15.50;99.90
43143;DHT22;28750;59.842;17.584;2022-09-25T13:16:10;15.40;99.90
43143;DHT22;28750;59.842;17.584;2022-09-25T13:18:46;15.50;99.90
43143;DHT22;28750;59.842;17.584;2022-09-25T13:23:52;15.40;99.90
43143;DHT22;28750;59.842;17.584;2022-09-25T13:26:23;15.40;99.90
43143;DHT22;28750;59.842;17.584;2022-09-25T13:28:55;15.30;99.90
43143;DHT22;28750;59.842;17.584;2022-09-25T13:31:24;15.00;99.90
43143;DHT22;28750;59.842;17.584;2022-09-25T13:33:54;14.90;99.90
43143;DHT22;28750;59.842;17.584;2022-09-25T13:39:01;14.90;99.90
43143;DHT22;28750;59.842;17.584;2022-09-25T13:41:55;14.90;99.90
43143;DHT22;28750;59.842;17.584;2022-09-25T13:55:16;14.70;99.90
43143;DHT22;28750;59.842;17.584;2022-09-25T14:03:02;14.50;1.00
43143;DHT22;28750;59.842;17.584;2022-09-25T14:05:33;14.40;1.00
43143;DHT22;28750;59.842;17.584;2022-09-25T14:08:07;14.30;1.00
43143;DHT22;28750;59.842;17.584;2022-09-25T14:10:36;14.30;50.70
43143;DHT22;28750;59.842;17.584;2022-09-25T14:13:03;14.30;1.00
43143;DHT22;28750;59.842;17.584;2022-09-25T14:15:33;14.30;1.00
43143;DHT22;28750;59.842;17.584;2022-09-25T14:18:05;14.40;99.90
43143;DHT22;28750;59.842;17.584;2022-09-25T14:20:45;14.40;99.90
43143;DHT22;28750;59.842;17.584;2022-09-25T14:23:21;14.40;99.90
43143;DHT22;28750;59.842;17.584;2022-09-25T14:26:19;14.30;99.90
43143;DHT22;28750;59.842;17.584;2022-09-25T14:28:48;14.30;1.00
43143;DHT22;28750;59.842;17.584;2022-09-25T14:40:16;13.90;99.90
43143;DHT22;28750;59.842;17.584;2022-09-25T14:46:10;13.80;99.90
43143;DHT22;28750;59.842;17.584;2022-09-25T14:49:11;13.70;99.90
43143;DHT22;28750;59.842;17.584;2022-09-25T14:51:44;13.60;1.00
43143;DHT22;28750;59.842;17.584;2022-09-25T14:54:15;13.60;99.90
43143;DHT22;28750;59.842;17.584;2022-09-25T14:56:45;13.60;99.90
43143;DHT22;28750;59.842;17.584;2022-09-25T15:01:51;13.50;99.90
43143;DHT22;28750;59.842;17.584;2022-09-25T15:04:36;13.50;1.00
43143;DHT22;28750;59.842;17.584;2022-09-25T15:09:37;13.40;56.90
43143;DHT22;28750;59.842;17.584;2022-09-25T15:12:31;13.30;99.90
43143;DHT22;28750;59.842;17.584;2022-09-25T15:17:47;13.20;99.90
43143;DHT22;28750;59.842;17.584;2022-09-25T15:20:17;13.20;99.90
43143;DHT22;28750;59.842;17.584;2022-09-25T15:23:06;13.20;99.90
43143;DHT22;28750;59.842;17.584;2022-09-25T15:25:41;13.10;99.90
43143;DHT22;28750;59.842;17.584;2022-09-25T15:28:21;13.00;99.90
43143;DHT22;28750;59.842;17.584;2022-09-25T15:30:59;13.00;99.90
43143;DHT22;28750;59.842;17.584;2022-09-25T15:33:30;13.00;99.90
43143;DHT22;28750;59.842;17.584;2022-09-25T15:36:00;13.00;99.90
43143;DHT22;28750;59.842;17.584;2022-09-25T15:38:33;12.90;1.00
43143;DHT22;28750;59.842;17.584;2022-09-25T15:41:01;12.90;1.00
43143;DHT22;28750;59.842;17.584;2022-09-25T15:43:28;12.90;1.00
43143;DHT22;28750;59.842;17.584;2022-09-25T15:48:48;12.80;99.90
43143;DHT22;28750;59.842;17.584;2022-09-25T15:51:21;12.80;99.90
43143;DHT22;28750;59.842;17.584;2022-09-25T15:53:54;12.70;99.90
43143;DHT22;28750;59.842;17.584;2022-09-25T15:56:25;12.50;99.90
43143;DHT22;28750;59.842;17.584;2022-09-25T15:59:01;12.40;1.00
43143;DHT22;28750;59.842;17.584;2022-09-25T16:01:32;12.30;1.00
43143;DHT22;28750;59.842;17.584;2022-09-25T16:04:22;12.30;1.00
43143;DHT22;28750;59.842;17.584;2022-09-25T16:07:25;12.20;12.00
43143;DHT22;28750;59.842;17.584;2022-09-25T16:09:57;12.10;90.20
43143;DHT22;28750;59.842;17.584;2022-09-25T16:12:28;12.10;74.90
43143;DHT22;28750;59.842;17.584;2022-09-25T16:14:57;12.00;98.70
43143;DHT22;28750;59.842;17.584;2022-09-25T16:17:36;12.00;99.90
43143;DHT22;28750;59.842;17.584;2022-09-25T16:22:55;11.90;99.90
43143;DHT22;28750;59.842;17.584;2022-09-25T16:25:33;11.70;93.40
43143;DHT22;28750;59.842;17.584;2022-09-25T16:28:06;11.60;79.40
43143;DHT22;28750;59.842;17.584;2022-09-25T16:30:35;11.60;97.80
43143;DHT22;28750;59.842;17.584;2022-09-25T16:33:36;11.50;99.90
43143;DHT22;28750;59.842;17.584;2022-09-25T16:36:04;11.50;99.90
43143;DHT22;28750;59.842;17.584;2022-09-25T16:38:34;11.50;99.90
43143;DHT22;28750;59.842;17.584;2022-09-25T16:41:25;11.50;99.90
43143;DHT22;28750;59.842;17.584;2022-09-25T16:44:20;11.50;99.90
43143;DHT22;28750;59.842;17.584;2022-09-25T16:49:18;11.30;99.90
43143;DHT22;28750;59.842;17.584;2022-09-25T16:51:46;11.30;99.90
43143;DHT22;28750;59.842;17.584;2022-09-25T16:54:16;11.30;99.90
43143;DHT22;28750;59.842;17.584;2022-09-25T16:56:45;11.10;99.90
43143;DHT22;28750;59.842;17.584;2022-09-25T16:59:23;11.10;99.90
43143;DHT22;28750;59.842;17.584;2022-09-25T17:02:07;11.10;99.90
43143;DHT22;28750;59.842;17.584;2022-09-25T17:04:36;11.20;99.90
43143;DHT22;28750;59.842;17.584;2022-09-25T17:07:03;11.10;99.90
43143;DHT22;28750;59.842;17.584;2022-09-25T17:09:30;11.00;99.90
43143;DHT22;28750;59.842;17.584;2022-09-25T17:12:12;11.00;99.90
43143;DHT22;28750;59.842;17.584;2022-09-25T17:14:41;10.90;99.90
43143;DHT22;28750;59.842;17.584;2022-09-25T17:17:08;10.90;99.90
43143;DHT22;28750;59.842;17.584;2022-09-25T17:19:35;10.90;99.90
43143;DHT22;28750;59.842;17.584;2022-09-25T17:22:02;10.80;99.90
43143;DHT22;28750;59.842;17.584;2022-09-25T17:24:29;10.60;99.90
43143;DHT22;28750;59.842;17.584;2022-09-25T17:26:56;10.40;99.90
43143;DHT22;28750;59.842;17.584;2022-09-25T17:29:23;10.30;99.90
43143;DHT22;28750;59.842;17.584;2022-09-25T17:31:51;10.30;99.90
43143;DHT22;28750;59.842;17.584;2022-09-25T17:34:20;10.10;99.90
43143;DHT22;28750;59.842;17.584;2022-09-25T17:36:50;10.10;99.90
43143;DHT22;28750;59.842;17.584;2022-09-25T17:39:17;10.20;99.90
43143;DHT22;28750;59.842;17.584;2022-09-25T17:41:45;10.20;99.90
43143;DHT22;28750;59.842;17.584;2022-09-25T17:44:16;10.30;99.90
43143;DHT22;28750;59.842;17.584;2022-09-25T17:46:44;10.20;99.90
43143;DHT22;28750;59.842;17.584;2022-09-25T17:49:11;10.00;99.90
43143;DHT22;28750;59.842;17.584;2022-09-25T17:51:38;9.80;99.90
43143;DHT22;28750;59.842;17.584;2022-09-25T17:54:06;9.80;99.90
43143;DHT22;28750;59.842;17.584;2022-09-25T17:56:33;9.80;99.90
43143;DHT22;28750;59.842;17.584;2022-09-25T17:59:02;9.70;99.90
43143;DHT22;28750;59.842;17.584;2022-09-25T18:01:31;9.70;99.90
43143;DHT22;28750;59.842;17.584;2022-09-25T18:04:24;9.60;99.90
43143;DHT22;28750;59.842;17.584;2022-09-25T18:06:51;9.50;99.90
43143;DHT22;28750;59.842;17.584;2022-09-25T18:09:18;9.50;99.90
43143;DHT22;28750;59.842;17.584;2022-09-25T18:11:46;9.40;99.90
43143;DHT22;28750;59.842;17.584;2022-09-25T18:14:14;9.40;99.90
43143;DHT22;28750;59.842;17.584;2022-09-25T18:16:42;9.40;99.90
43143;DHT22;28750;59.842;17.584;2022-09-25T18:19:17;9.50;99.90
43143;DHT22;28750;59.842;17.584;2022-09-25T18:22:02;9.50;99.90
43143;DHT22;28750;59.842;17.584;2022-09-25T18:24:47;9.50;99.90
43143;DHT22;28750;59.842;17.584;2022-09-25T18:27:17;9.50;99.90
43143;DHT22;28750;59.842;17.584;2022-09-25T18:29:44;9.60;99.90
43143;DHT22;28750;59.842;17.584;2022-09-25T18:32:12;9.60;99.90
43143;DHT22;28750;59.842;17.584;2022-09-25T18:34:39;9.50;99.90
43143;DHT22;28750;59.842;17.584;2022-09-25T18:37:06;9.50;99.90
43143;DHT22;28750;59.842;17.584;2022-09-25T18:39:33;9.60;99.90
43143;DHT22;28750;59.842;17.584;2022-09-25T18:42:00;9.60;99.90
43143;DHT22;28750;59.842;17.584;2022-09-25T18:44:27;9.80;99.90
43143;DHT22;28750;59.842;17.584;2022-09-25T18:46:54;9.80;99.90
43143;DHT22;28750;59.842;17.584;2022-09-25T18:49:21;9.90;99.90
43143;DHT22;28750;59.842;17.584;2022-09-25T18:51:50;9.90;99.90
43143;DHT22;28750;59.842;17.584;2022-09-25T18:54:17;9.80;99.90
43143;DHT22;28750;59.842;17.584;2022-09-25T18:56:45;9.70;99.90